Airport View

Enter AWOS ICAO identifier for current METAR.

ex. KFNL

KMLI 191852Z 04006KT 3SM -RA BR OVC100 22/19 A2971 RMK AO2 SLP058 P0004 T02170194

19 Jun 2019 19:29

Phone: 309-799-7096

Other Area AWOS: KDVN - KCWI - KMUT - KGBG

TAF AMD KMLI 191916Z 1919/2018 06005KT 3SM -SHRA BR VCTS BKN015CB FM192300 05005KT P6SM VCSH OVC030 FM201000 VRB03KT P6SM SCT020 BKN035 FM201400 36006KT P6SM SCT020